createdAt,value
2019-02-18T00:02:11.532Z,54.60
2019-02-18T00:04:41.854Z,62.30
2019-02-18T00:07:14.535Z,61.10
2019-02-18T00:09:43.306Z,54.33
2019-02-18T00:12:13.488Z,56.90
2019-02-18T00:14:48.534Z,61.77
2019-02-18T00:17:18.724Z,57.30
2019-02-18T00:19:51.922Z,53.33
2019-02-18T00:22:21.992Z,54.87
2019-02-18T00:24:52.170Z,55.07
2019-02-18T00:27:20.934Z,61.00
2019-02-18T00:29:51.372Z,59.00
2019-02-18T00:32:23.593Z,56.27
2019-02-18T00:34:53.639Z,63.67
2019-02-18T00:37:24.719Z,62.73
2019-02-18T00:39:53.372Z,57.87
2019-02-18T00:42:22.120Z,73.17
2019-02-18T00:44:53.833Z,61.17
2019-02-18T00:47:22.536Z,61.10
2019-02-18T00:49:51.656Z,64.07
2019-02-18T00:52:23.307Z,61.17
2019-02-18T00:54:52.184Z,57.43
2019-02-18T00:57:23.210Z,63.43
2019-02-18T00:59:53.291Z,61.87
2019-02-18T01:02:25.024Z,59.27
2019-02-18T01:04:57.386Z,66.80
2019-02-18T01:07:34.420Z,64.30
2019-02-18T01:09:57.903Z,69.43
2019-02-18T01:12:28.116Z,63.27
2019-02-18T01:14:58.119Z,63.13
2019-02-18T01:17:26.607Z,62.43
2019-02-18T01:19:55.397Z,64.60
2019-02-18T01:22:24.051Z,63.23
2019-02-18T01:24:53.995Z,61.17
2019-02-18T01:27:22.798Z,65.30
2019-02-18T01:29:52.313Z,58.47
2019-02-18T01:32:23.450Z,58.70
2019-02-18T01:34:52.349Z,60.20
2019-02-18T01:37:22.697Z,59.83
2019-02-18T01:39:57.144Z,64.73
2019-02-18T01:42:27.874Z,58.67
2019-02-18T01:44:56.522Z,58.40
2019-02-18T01:47:29.067Z,51.93
2019-02-18T01:49:58.222Z,54.07
2019-02-18T01:52:26.808Z,58.97
2019-02-18T01:54:56.975Z,60.27
2019-02-18T01:57:26.296Z,62.70
2019-02-18T01:59:56.424Z,58.63
2019-02-18T02:02:27.231Z,58.67
2019-02-18T02:04:56.054Z,59.07
2019-02-18T02:07:26.399Z,58.30
2019-02-18T02:09:58.487Z,55.83
2019-02-18T02:12:31.795Z,61.07
2019-02-18T02:15:05.201Z,57.47
2019-02-18T02:17:38.796Z,49.87
2019-02-18T02:20:10.398Z,56.00
2019-02-18T02:22:40.413Z,68.23
2019-02-18T02:25:13.253Z,59.10
2019-02-18T02:27:41.871Z,53.10
2019-02-18T02:30:12.133Z,56.60
2019-02-18T02:32:42.344Z,57.83
2019-02-18T02:35:13.133Z,57.30
2019-02-18T02:37:45.076Z,62.47
2019-02-18T02:40:13.863Z,59.23
2019-02-18T02:42:44.383Z,60.60
2019-02-18T02:45:13.249Z,56.07
2019-02-18T02:47:42.631Z,56.53
2019-02-18T02:50:12.850Z,61.57
2019-02-18T02:52:44.782Z,59.00
2019-02-18T02:55:14.215Z,64.57
2019-02-18T02:57:42.871Z,58.77
2019-02-18T03:00:14.737Z,56.27
2019-02-18T03:02:43.812Z,61.93
2019-02-18T03:05:14.138Z,60.00
2019-02-18T03:07:43.439Z,56.30
2019-02-18T03:10:16.583Z,59.60
2019-02-18T03:12:45.324Z,64.33
2019-02-18T03:15:18.206Z,57.47
2019-02-18T03:17:47.236Z,58.63
2019-02-18T03:20:16.282Z,53.33
2019-02-18T03:22:44.925Z,53.20
2019-02-18T03:25:25.104Z,53.40
2019-02-18T03:27:59.657Z,58.13
2019-02-18T03:30:45.340Z,57.37
2019-02-18T03:33:23.413Z,56.57
2019-02-18T03:35:53.679Z,55.73
2019-02-18T03:38:31.171Z,64.97
2019-02-18T03:41:02.747Z,57.40
2019-02-18T03:43:25.136Z,52.53
2019-02-18T03:45:58.938Z,62.63
2019-02-18T03:48:27.843Z,52.97
2019-02-18T03:50:59.717Z,54.23
2019-02-18T03:53:30.041Z,53.40
2019-02-18T03:56:00.282Z,56.23
2019-02-18T03:58:32.744Z,62.97
2019-02-18T04:01:03.325Z,53.67
2019-02-18T04:03:34.745Z,56.80
2019-02-18T04:06:08.563Z,57.93
2019-02-18T04:08:42.927Z,57.00
2019-02-18T04:11:12.887Z,62.00
2019-02-18T04:13:44.347Z,59.70
2019-02-18T04:16:13.008Z,60.03
2019-02-18T04:18:42.265Z,57.03
2019-02-18T04:21:11.105Z,66.13
2019-02-18T04:23:39.811Z,57.10
2019-02-18T04:26:08.625Z,55.23
2019-02-18T04:28:41.142Z,57.67
2019-02-18T04:31:14.059Z,69.43
2019-02-18T04:33:47.477Z,57.80
2019-02-18T04:36:17.662Z,64.10
2019-02-18T04:38:54.092Z,61.60
2019-02-18T04:41:26.512Z,59.67
2019-02-18T04:43:55.316Z,60.10
2019-02-18T04:46:25.844Z,61.00
2019-02-18T04:48:57.515Z,66.63
2019-02-18T04:51:27.512Z,66.03
2019-02-18T04:54:00.699Z,61.13
2019-02-18T04:56:30.499Z,57.83
2019-02-18T04:58:59.435Z,57.73
2019-02-18T05:01:30.517Z,56.20
2019-02-18T05:04:02.706Z,62.33
2019-02-18T05:06:31.529Z,56.10
2019-02-18T05:09:05.398Z,59.27
2019-02-18T05:11:37.623Z,60.03
2019-02-18T05:14:06.551Z,59.23
2019-02-18T05:16:38.548Z,63.03
2019-02-18T05:19:07.867Z,61.13
2019-02-18T05:21:52.214Z,59.50
2019-02-18T05:24:23.095Z,62.40
2019-02-18T05:26:51.805Z,66.20
2019-02-18T05:29:20.352Z,60.20
2019-02-18T05:31:50.553Z,63.80
2019-02-18T05:34:20.210Z,66.40
2019-02-18T05:36:49.321Z,60.40
2019-02-18T05:39:18.628Z,67.60
2019-02-18T05:41:49.648Z,58.90
2019-02-18T05:44:18.687Z,67.37
2019-02-18T05:46:48.789Z,58.23
2019-02-18T05:49:17.598Z,58.10
2019-02-18T05:51:47.949Z,49.97
2019-02-18T05:54:16.944Z,60.90
2019-02-18T05:56:47.614Z,58.47
2019-02-18T05:59:17.995Z,63.20
2019-02-18T06:01:49.070Z,61.80
2019-02-18T06:04:19.625Z,58.63
2019-02-18T06:06:48.458Z,66.87
2019-02-18T06:09:29.222Z,60.73
2019-02-18T06:11:50.500Z,68.53
2019-02-18T06:14:20.539Z,55.17
2019-02-18T06:16:50.726Z,73.53
2019-02-18T06:19:19.559Z,59.97
2019-02-18T06:21:48.987Z,61.37
2019-02-18T06:24:17.924Z,68.20
2019-02-18T06:26:48.388Z,62.90
2019-02-18T06:29:20.273Z,57.27
2019-02-18T06:31:53.076Z,65.80
2019-02-18T06:34:24.504Z,58.30
2019-02-18T06:36:58.615Z,61.57
2019-02-18T06:39:27.728Z,67.17
2019-02-18T06:41:57.712Z,69.70
2019-02-18T06:44:28.141Z,63.63
2019-02-18T06:47:01.439Z,66.87
2019-02-18T06:49:32.210Z,68.13
2019-02-18T06:52:02.848Z,62.50
2019-02-18T06:54:37.570Z,66.57
2019-02-18T06:57:18.655Z,541.93
2019-02-18T06:59:46.289Z,79.10
2019-02-18T07:02:17.794Z,64.00
2019-02-18T07:04:48.516Z,71.30
2019-02-18T07:07:33.530Z,71.50
2019-02-18T07:10:04.225Z,78.17
2019-02-18T07:12:36.764Z,69.77
2019-02-18T07:15:06.924Z,69.87
2019-02-18T07:17:40.636Z,72.00
2019-02-18T07:20:16.723Z,68.37
2019-02-18T07:22:52.833Z,74.63
2019-02-18T07:25:23.638Z,70.30
2019-02-18T07:27:55.801Z,66.17
2019-02-18T07:30:36.884Z,63.20
2019-02-18T07:33:08.400Z,63.10
2019-02-18T07:35:39.842Z,68.57
2019-02-18T07:38:10.422Z,71.67
2019-02-18T07:40:42.871Z,61.00
2019-02-18T07:43:14.218Z,73.80
2019-02-18T07:45:44.506Z,64.53
2019-02-18T07:48:14.988Z,66.67
2019-02-18T07:50:44.296Z,71.17
2019-02-18T07:53:23.462Z,61.97
2019-02-18T07:56:00.300Z,71.03
2019-02-18T07:58:26.633Z,64.87
2019-02-18T08:01:05.954Z,68.73
2019-02-18T08:03:35.104Z,66.80
2019-02-18T08:06:03.815Z,69.70
2019-02-18T08:08:32.529Z,68.40
2019-02-18T08:11:01.354Z,72.23
2019-02-18T08:13:32.478Z,66.57
2019-02-18T08:16:04.160Z,70.40
2019-02-18T08:18:34.523Z,61.23
2019-02-18T08:21:05.622Z,56.27
2019-02-18T08:23:38.190Z,54.20
2019-02-18T08:26:10.471Z,61.67
2019-02-18T08:28:43.639Z,51.90
2019-02-18T08:31:15.621Z,56.73
2019-02-18T08:33:46.655Z,53.00
2019-02-18T08:36:18.512Z,65.07
2019-02-18T08:38:47.195Z,57.80
2019-02-18T08:41:15.994Z,59.57
2019-02-18T08:43:44.666Z,46.07
2019-02-18T08:46:14.059Z,45.93
2019-02-18T08:48:50.212Z,45.57
2019-02-18T08:51:19.391Z,46.40
2019-02-18T08:53:49.057Z,48.77
2019-02-18T08:56:18.195Z,49.17
2019-02-18T08:58:48.890Z,54.77
2019-02-18T09:01:25.322Z,43.83
2019-02-18T09:03:54.149Z,47.93
2019-02-18T09:06:23.269Z,51.87
2019-02-18T09:08:51.968Z,47.20
2019-02-18T09:11:21.985Z,52.63
2019-02-18T09:13:53.260Z,48.80
2019-02-18T09:16:23.216Z,45.13
2019-02-18T09:18:52.548Z,39.20
2019-02-18T09:21:21.468Z,37.97
2019-02-18T09:23:55.583Z,37.03
2019-02-18T09:26:25.005Z,37.50
2019-02-18T09:28:54.387Z,35.37
2019-02-18T09:31:24.769Z,35.30
2019-02-18T09:33:53.732Z,36.27
2019-02-18T09:36:22.788Z,36.40
2019-02-18T09:38:52.453Z,36.00
2019-02-18T09:41:22.514Z,39.30
2019-02-18T09:43:52.160Z,39.00
2019-02-18T09:46:21.775Z,29.67
2019-02-18T09:48:50.674Z,24.00
2019-02-18T09:51:19.297Z,35.23
2019-02-18T09:53:48.122Z,36.13
2019-02-18T09:56:18.885Z,29.23
2019-02-18T09:58:50.173Z,32.53
2019-02-18T10:01:19.436Z,40.73
2019-02-18T10:03:52.113Z,28.43
2019-02-18T10:06:22.312Z,30.17
2019-02-18T10:08:53.975Z,38.60
2019-02-18T10:11:27.339Z,38.03
2019-02-18T10:13:56.212Z,40.00
2019-02-18T10:16:28.427Z,46.63
2019-02-18T10:18:57.072Z,35.30
2019-02-18T10:21:27.756Z,48.67
2019-02-18T10:23:56.616Z,41.33
2019-02-18T10:26:27.115Z,34.53
2019-02-18T10:28:56.214Z,31.13
2019-02-18T10:31:24.855Z,36.07
2019-02-18T10:33:56.091Z,30.83
2019-02-18T10:36:26.354Z,38.20
2019-02-18T10:38:56.685Z,29.83
2019-02-18T10:41:26.869Z,37.03
2019-02-18T10:43:55.640Z,34.00
2019-02-18T10:46:26.192Z,28.90
2019-02-18T10:48:58.053Z,27.07
2019-02-18T10:51:30.791Z,34.77
2019-02-18T10:54:01.979Z,28.97
2019-02-18T10:56:30.847Z,27.40
2019-02-18T10:58:59.644Z,23.50
2019-02-18T11:01:28.458Z,27.40
2019-02-18T11:03:59.560Z,28.10
2019-02-18T11:06:29.776Z,26.93
2019-02-18T11:08:58.583Z,31.13
2019-02-18T11:11:27.372Z,51.63
2019-02-18T11:13:56.823Z,25.17
2019-02-18T11:16:27.943Z,22.03
2019-02-18T11:18:58.025Z,32.23
2019-02-18T11:21:32.211Z,20.70
2019-02-18T11:23:59.936Z,25.53
2019-02-18T11:26:31.275Z,20.93
2019-02-18T11:29:02.607Z,26.57
2019-02-18T11:31:32.843Z,35.63
2019-02-18T11:34:01.667Z,25.40
2019-02-18T11:36:31.595Z,24.07
2019-02-18T11:39:20.447Z,25.13
2019-02-18T11:41:49.196Z,22.43
2019-02-18T11:44:22.798Z,23.93
2019-02-18T11:46:52.087Z,24.30
2019-02-18T11:49:22.792Z,23.83
2019-02-18T11:52:01.115Z,28.80
2019-02-18T11:54:31.552Z,23.27
2019-02-18T11:57:00.340Z,20.57
2019-02-18T11:59:29.110Z,22.57
2019-02-18T12:01:59.742Z,25.83
2019-02-18T12:04:32.446Z,22.80
2019-02-18T12:07:01.685Z,27.33
2019-02-18T12:09:30.754Z,23.90
2019-02-18T12:12:04.695Z,36.03
2019-02-18T12:14:31.728Z,31.20
2019-02-18T12:17:02.152Z,35.20
2019-02-18T12:19:31.008Z,24.83
2019-02-18T12:22:01.712Z,17.67
2019-02-18T12:24:32.439Z,23.00
2019-02-18T12:27:05.271Z,25.93
2019-02-18T12:29:34.820Z,27.07
2019-02-18T12:32:05.353Z,20.37
2019-02-18T12:34:36.511Z,35.80
2019-02-18T12:37:12.032Z,30.40
2019-02-18T12:39:43.694Z,27.40
2019-02-18T12:42:17.172Z,23.97
2019-02-18T12:44:48.385Z,19.67
2019-02-18T12:47:17.972Z,25.20
2019-02-18T12:49:50.998Z,27.33
2019-02-18T12:52:19.768Z,29.27
2019-02-18T12:54:49.821Z,28.10
2019-02-18T12:57:20.139Z,23.87
2019-02-18T12:59:53.090Z,20.93
2019-02-18T13:02:24.051Z,21.43
2019-02-18T13:04:56.496Z,24.03
2019-02-18T13:07:26.714Z,21.77
2019-02-18T13:10:00.365Z,21.97
2019-02-18T13:12:27.029Z,25.13
2019-02-18T13:14:56.427Z,26.10
2019-02-18T13:17:25.474Z,27.70
2019-02-18T13:19:55.600Z,24.43
2019-02-18T13:22:24.528Z,25.83
2019-02-18T13:24:54.530Z,19.27
2019-02-18T13:27:27.098Z,22.07
2019-02-18T13:29:56.261Z,20.00
2019-02-18T13:32:30.264Z,31.43
2019-02-18T13:35:01.614Z,19.47
2019-02-18T13:37:30.751Z,26.67
2019-02-18T13:40:02.227Z,30.03
2019-02-18T13:42:32.409Z,26.10
2019-02-18T13:45:07.321Z,26.70
2019-02-18T13:47:36.503Z,30.17
2019-02-18T13:50:10.635Z,28.33
2019-02-18T13:52:39.425Z,30.40
2019-02-18T13:55:10.787Z,24.10
2019-02-18T13:57:40.266Z,29.97
2019-02-18T14:00:17.546Z,19.60
2019-02-18T14:02:48.578Z,31.00
2019-02-18T14:05:18.887Z,33.17
2019-02-18T14:07:47.991Z,27.67
2019-02-18T14:10:17.445Z,25.80
2019-02-18T14:12:48.387Z,28.53
2019-02-18T14:15:18.900Z,26.17
2019-02-18T14:17:50.493Z,22.90
2019-02-18T14:20:20.778Z,33.17
2019-02-18T14:22:53.131Z,30.07
2019-02-18T14:25:22.587Z,31.43
2019-02-18T14:27:52.450Z,33.10
2019-02-18T14:30:22.665Z,34.13
2019-02-18T14:32:51.767Z,26.47
2019-02-18T14:35:25.380Z,26.90
2019-02-18T14:37:55.951Z,36.60
2019-02-18T14:40:27.816Z,29.80
2019-02-18T14:42:56.684Z,34.53
2019-02-18T14:45:28.958Z,30.47
2019-02-18T14:47:58.638Z,47.50
2019-02-18T14:50:35.308Z,32.17
2019-02-18T14:53:06.070Z,51.97
2019-02-18T14:55:35.542Z,33.50
2019-02-18T14:58:16.548Z,33.13
2019-02-18T15:00:51.354Z,31.37
2019-02-18T15:03:27.046Z,34.33
2019-02-18T15:05:59.326Z,31.87
2019-02-18T15:08:29.356Z,38.63
2019-02-18T15:11:00.824Z,36.87
2019-02-18T15:13:31.074Z,36.80
2019-02-18T15:16:01.613Z,30.40
2019-02-18T15:18:30.422Z,30.43
2019-02-18T15:21:00.601Z,33.63
2019-02-18T15:23:33.664Z,33.93
2019-02-18T15:26:04.073Z,30.70
2019-02-18T15:28:35.749Z,36.20
2019-02-18T15:31:09.337Z,41.07
2019-02-18T15:33:47.376Z,37.10
2019-02-18T15:36:17.992Z,41.43
2019-02-18T15:38:50.288Z,54.40
2019-02-18T15:41:19.155Z,44.57
2019-02-18T15:43:47.871Z,41.37
2019-02-18T15:46:18.084Z,74.87
2019-02-18T15:48:50.660Z,45.80
2019-02-18T15:51:23.155Z,51.77
2019-02-18T15:53:52.087Z,51.70
2019-02-18T15:56:22.515Z,44.27
2019-02-18T15:58:54.360Z,41.30
2019-02-18T16:01:23.124Z,44.77
2019-02-18T16:03:52.286Z,45.43
2019-02-18T16:06:23.837Z,44.63
2019-02-18T16:08:53.140Z,49.27
2019-02-18T16:11:26.636Z,42.47
2019-02-18T16:13:56.003Z,45.80
2019-02-18T16:16:29.235Z,48.80
2019-02-18T16:19:01.261Z,55.93
2019-02-18T16:21:30.391Z,54.23
2019-02-18T16:23:59.227Z,54.93
2019-02-18T16:26:27.992Z,47.70
2019-02-18T16:28:58.178Z,47.00
2019-02-18T16:31:30.532Z,53.07
2019-02-18T16:34:00.435Z,48.17
2019-02-18T16:36:31.375Z,60.43
2019-02-18T16:39:12.694Z,54.47
2019-02-18T16:41:43.415Z,57.50
2019-02-18T16:44:13.240Z,55.03
2019-02-18T16:46:45.046Z,56.87
2019-02-18T16:49:19.640Z,65.10
2019-02-18T16:51:48.597Z,52.77
2019-02-18T16:54:23.188Z,59.37
2019-02-18T16:56:51.993Z,57.00
2019-02-18T16:59:22.799Z,57.73
2019-02-18T17:01:53.836Z,57.57
2019-02-18T17:04:24.040Z,65.80
2019-02-18T17:06:54.126Z,60.70
2019-02-18T17:09:24.942Z,59.90
2019-02-18T17:11:57.426Z,53.93
2019-02-18T17:14:28.454Z,55.43
2019-02-18T17:17:01.880Z,50.60
2019-02-18T17:19:32.345Z,57.53
2019-02-18T17:22:04.567Z,56.67
2019-02-18T17:24:34.669Z,72.13
2019-02-18T17:27:06.192Z,62.70
2019-02-18T17:29:41.056Z,59.63
2019-02-18T17:32:13.171Z,57.40
2019-02-18T17:34:45.679Z,57.80
2019-02-18T17:37:14.905Z,59.73
2019-02-18T17:39:48.752Z,61.47
2019-02-18T17:42:18.084Z,70.13
2019-02-18T17:44:48.388Z,68.17
2019-02-18T17:47:17.590Z,64.00
2019-02-18T17:49:46.652Z,72.53
2019-02-18T17:52:18.587Z,71.70
2019-02-18T17:54:53.312Z,73.77
2019-02-18T17:57:23.716Z,78.90
2019-02-18T17:59:55.888Z,74.10
2019-02-18T18:02:33.469Z,71.67
2019-02-18T18:05:02.307Z,82.23
2019-02-18T18:07:31.067Z,76.33
2019-02-18T18:10:01.065Z,80.63
2019-02-18T18:12:36.524Z,85.53
2019-02-18T18:15:10.124Z,89.03
2019-02-18T18:17:41.794Z,90.17
2019-02-18T18:20:15.298Z,92.67
2019-02-18T18:22:44.050Z,78.17
2019-02-18T18:25:19.895Z,86.70
2019-02-18T18:27:48.733Z,92.70
2019-02-18T18:30:20.314Z,94.20
2019-02-18T18:32:51.849Z,93.23
2019-02-18T18:38:17.169Z,93.73
2019-02-18T18:40:45.741Z,96.40
2019-02-18T18:43:15.509Z,92.13
2019-02-18T18:45:45.550Z,102.93
2019-02-18T18:48:15.561Z,92.07
2019-02-18T18:50:44.366Z,99.23
2019-02-18T18:53:13.221Z,105.03
2019-02-18T18:55:44.019Z,108.20
2019-02-18T18:58:13.895Z,98.80
2019-02-18T19:00:45.781Z,99.23
2019-02-18T19:03:17.532Z,111.60
2019-02-18T19:05:50.678Z,98.70
2019-02-18T19:08:20.712Z,106.50
2019-02-18T19:10:49.551Z,101.70
2019-02-18T19:13:21.763Z,105.17
2019-02-18T19:15:50.717Z,95.30
2019-02-18T19:18:21.589Z,96.70
2019-02-18T19:20:50.378Z,114.00
2019-02-18T19:23:20.542Z,100.93
2019-02-18T19:25:53.846Z,116.40
2019-02-18T19:28:23.994Z,118.23
2019-02-18T19:30:55.442Z,121.47
2019-02-18T19:33:25.492Z,110.47
2019-02-18T19:35:56.811Z,120.27
2019-02-18T19:38:28.950Z,113.23
2019-02-18T19:40:57.723Z,101.20
2019-02-18T19:43:29.989Z,116.50
2019-02-18T19:45:59.657Z,110.23
2019-02-18T19:48:28.918Z,104.70
2019-02-18T19:50:58.315Z,113.83
2019-02-18T19:53:27.252Z,111.63
2019-02-18T19:55:56.071Z,114.37
2019-02-18T19:58:27.511Z,121.00
2019-02-18T20:00:56.525Z,111.33
2019-02-18T20:03:33.504Z,106.70
2019-02-18T20:06:01.786Z,118.67
2019-02-18T20:08:31.063Z,108.53
2019-02-18T20:11:02.489Z,107.60
2019-02-18T20:13:41.993Z,112.30
2019-02-18T20:16:10.747Z,120.07
2019-02-18T20:18:40.576Z,121.43
2019-02-18T20:21:10.023Z,130.27
2019-02-18T20:23:38.675Z,132.63
2019-02-18T20:26:09.116Z,119.27
2019-02-18T20:28:40.378Z,120.90
2019-02-18T20:31:11.726Z,119.77
2019-02-18T20:33:42.036Z,121.27
2019-02-18T20:36:13.953Z,123.70
2019-02-18T20:38:45.933Z,124.70
2019-02-18T20:41:14.876Z,140.27
2019-02-18T20:43:44.320Z,124.33
2019-02-18T20:46:15.189Z,130.27
2019-02-18T20:48:48.455Z,134.43
2019-02-18T20:51:14.635Z,137.43
2019-02-18T20:53:45.142Z,134.13
2019-02-18T20:56:17.303Z,139.20
2019-02-18T20:58:47.603Z,150.30
2019-02-18T21:01:17.516Z,141.27
2019-02-18T21:04:06.173Z,147.53
2019-02-18T21:06:37.298Z,145.00
2019-02-18T21:09:07.185Z,139.30
2019-02-18T21:11:36.037Z,131.20
2019-02-18T21:14:15.937Z,141.80
2019-02-18T21:19:29.011Z,138.97
2019-02-18T21:21:57.727Z,138.87
2019-02-18T21:24:28.154Z,148.87
2019-02-18T21:26:59.083Z,145.43
2019-02-18T21:29:27.820Z,136.07
2019-02-18T21:31:58.621Z,136.87
2019-02-18T21:34:32.601Z,137.60
2019-02-18T21:37:03.333Z,130.47
2019-02-18T21:39:35.135Z,152.27
2019-02-18T21:42:06.953Z,148.50
2019-02-18T21:44:37.290Z,140.30
2019-02-18T21:47:08.139Z,138.90
2019-02-18T21:49:36.669Z,144.50
2019-02-18T21:52:06.588Z,144.23
2019-02-18T21:54:37.795Z,144.37
2019-02-18T21:57:06.545Z,133.83
2019-02-18T21:59:36.960Z,159.47
2019-02-18T22:02:07.736Z,144.97
2019-02-18T22:04:39.608Z,148.40
2019-02-18T22:07:15.094Z,134.10
2019-02-18T22:09:49.880Z,163.47
2019-02-18T22:12:21.976Z,144.37
2019-02-18T22:14:50.726Z,150.77
2019-02-18T22:17:19.568Z,140.20
2019-02-18T22:19:55.704Z,145.10
2019-02-18T22:22:25.935Z,140.83
2019-02-18T22:24:56.788Z,143.80
2019-02-18T22:27:28.753Z,144.83
2019-02-18T22:29:59.132Z,153.13
2019-02-18T22:32:30.719Z,144.93
2019-02-18T22:34:59.345Z,137.67
2019-02-18T22:37:28.230Z,151.37
2019-02-18T22:40:02.887Z,154.40
2019-02-18T22:42:32.387Z,140.27
2019-02-18T22:45:04.388Z,145.17
2019-02-18T22:47:36.503Z,165.57
2019-02-18T22:50:06.712Z,166.13
2019-02-18T22:52:37.198Z,160.97
2019-02-18T22:55:08.362Z,159.10
2019-02-18T22:57:37.156Z,165.47
2019-02-18T23:00:12.578Z,148.60
2019-02-18T23:02:45.683Z,160.13
2019-02-18T23:05:17.353Z,143.23
2019-02-18T23:07:47.555Z,153.70
2019-02-18T23:10:16.363Z,163.87
2019-02-18T23:12:50.766Z,133.60
2019-02-18T23:15:17.601Z,156.67
2019-02-18T23:17:47.851Z,175.70
2019-02-18T23:20:18.939Z,166.53
2019-02-18T23:22:49.129Z,179.43
2019-02-18T23:25:19.249Z,166.07
2019-02-18T23:27:48.099Z,177.53
2019-02-18T23:30:16.890Z,155.80
2019-02-18T23:32:45.592Z,155.33
2019-02-18T23:35:15.253Z,168.27
2019-02-18T23:37:43.852Z,172.23
2019-02-18T23:40:12.736Z,170.07
2019-02-18T23:42:43.570Z,151.70
2019-02-18T23:45:13.741Z,149.13
2019-02-18T23:47:43.297Z,155.60
2019-02-18T23:50:14.373Z,167.03
2019-02-18T23:52:43.202Z,148.40
2019-02-18T23:55:12.609Z,157.97
2019-02-18T23:57:41.524Z,159.43
